Montrose, Colorado
Current Conditions -  °F | °C
As of 6:53 AM on Saturday 22 Nov 2014 (Local Time) from KMTJ Reporting Station
Clear Clear  
Wind Chill: -10°   Ceiling: Unl
Heat Index: -6°   Visibility: 10mi
Dew Point: -8°   Wind: 7mph
Humidity: 82%   Direction: 160°SSE
Pressure: 30.11"   Gusts: NA
Location:  38.48°N, 107.87°W
Report Text: KMTJ 221353Z AUTO 16006KT 10SM CLR M06/M08 A3011 RMK AO2 SLP208 T10561083
Loading
Personal Weather Stations






























Interactive Weather Map New forecast layout! Learn more

10-Day Weather Forecast

Advertisements
Track Severe Weather on mobile